sensor_id;sensor_type;location;lat;lon;timestamp;P1;durP1;ratioP1;P2;durP2;ratioP2
33794;SDS011;51430;52.242;21.118;2022-12-24T00:03:01;54.40;;;40.90;;
33794;SDS011;51430;52.242;21.118;2022-12-24T00:05:48;58.40;;;42.20;;
33794;SDS011;51430;52.242;21.118;2022-12-24T00:08:35;71.00;;;49.40;;
33794;SDS011;51430;52.242;21.118;2022-12-24T00:11:22;85.50;;;58.00;;
33794;SDS011;51430;52.242;21.118;2022-12-24T00:14:09;74.40;;;50.60;;
33794;SDS011;51430;52.242;21.118;2022-12-24T00:16:55;68.80;;;46.50;;
33794;SDS011;51430;52.242;21.118;2022-12-24T00:19:42;65.60;;;45.20;;
33794;SDS011;51430;52.242;21.118;2022-12-24T00:22:29;52.20;;;40.40;;
33794;SDS011;51430;52.242;21.118;2022-12-24T00:25:16;46.80;;;37.50;;
33794;SDS011;51430;52.242;21.118;2022-12-24T00:28:27;60.30;;;41.80;;
33794;SDS011;51430;52.242;21.118;2022-12-24T00:31:16;57.70;;;42.70;;
33794;SDS011;51430;52.242;21.118;2022-12-24T00:34:04;74.80;;;47.90;;
33794;SDS011;51430;52.242;21.118;2022-12-24T00:36:51;63.90;;;44.00;;
33794;SDS011;51430;52.242;21.118;2022-12-24T00:39:37;48.00;;;38.00;;
33794;SDS011;51430;52.242;21.118;2022-12-24T00:42:24;55.70;;;41.40;;
33794;SDS011;51430;52.242;21.118;2022-12-24T00:45:11;68.50;;;46.50;;
33794;SDS011;51430;52.242;21.118;2022-12-24T00:47:58;64.10;;;45.60;;
33794;SDS011;51430;52.242;21.118;2022-12-24T00:50:44;80.60;;;50.80;;
33794;SDS011;51430;52.242;21.118;2022-12-24T00:53:31;57.40;;;43.00;;
33794;SDS011;51430;52.242;21.118;2022-12-24T00:56:18;63.10;;;45.50;;
33794;SDS011;51430;52.242;21.118;2022-12-24T00:59:05;81.80;;;51.30;;
33794;SDS011;51430;52.242;21.118;2022-12-24T01:01:51;81.50;;;51.30;;
33794;SDS011;51430;52.242;21.118;2022-12-24T01:04:38;85.30;;;53.80;;
33794;SDS011;51430;52.242;21.118;2022-12-24T01:07:44;87.80;;;56.00;;
33794;SDS011;51430;52.242;21.118;2022-12-24T01:10:31;68.30;;;46.60;;
33794;SDS011;51430;52.242;21.118;2022-12-24T01:13:18;56.60;;;41.60;;
33794;SDS011;51430;52.242;21.118;2022-12-24T01:16:14;63.30;;;46.50;;
33794;SDS011;51430;52.242;21.118;2022-12-24T01:19:03;61.50;;;46.90;;
33794;SDS011;51430;52.242;21.118;2022-12-24T01:21:50;77.10;;;52.40;;
33794;SDS011;51430;52.242;21.118;2022-12-24T01:24:41;83.50;;;54.50;;
33794;SDS011;51430;52.242;21.118;2022-12-24T01:27:28;67.80;;;49.10;;
33794;SDS011;51430;52.242;21.118;2022-12-24T01:30:16;59.10;;;45.30;;
33794;SDS011;51430;52.242;21.118;2022-12-24T01:33:03;54.00;;;44.10;;
33794;SDS011;51430;52.242;21.118;2022-12-24T01:35:54;60.90;;;47.40;;
33794;SDS011;51430;52.242;21.118;2022-12-24T01:38:41;66.50;;;49.20;;
33794;SDS011;51430;52.242;21.118;2022-12-24T01:41:29;62.80;;;48.40;;
33794;SDS011;51430;52.242;21.118;2022-12-24T01:44:38;61.10;;;46.80;;
33794;SDS011;51430;52.242;21.118;2022-12-24T01:47:45;58.90;;;45.20;;
33794;SDS011;51430;52.242;21.118;2022-12-24T01:50:33;55.30;;;45.30;;
33794;SDS011;51430;52.242;21.118;2022-12-24T01:53:20;59.50;;;45.40;;
33794;SDS011;51430;52.242;21.118;2022-12-24T01:56:07;62.30;;;47.20;;
33794;SDS011;51430;52.242;21.118;2022-12-24T01:59:11;58.40;;;45.80;;
33794;SDS011;51430;52.242;21.118;2022-12-24T02:02:00;56.60;;;43.50;;
33794;SDS011;51430;52.242;21.118;2022-12-24T02:05:07;76.60;;;50.50;;
33794;SDS011;51430;52.242;21.118;2022-12-24T02:07:59;80.90;;;53.70;;
33794;SDS011;51430;52.242;21.118;2022-12-24T02:10:49;83.20;;;55.90;;
33794;SDS011;51430;52.242;21.118;2022-12-24T02:13:35;79.80;;;52.90;;
33794;SDS011;51430;52.242;21.118;2022-12-24T02:19:27;76.00;;;53.20;;
33794;SDS011;51430;52.242;21.118;2022-12-24T02:34:59;61.30;;;46.90;;
33794;SDS011;51430;52.242;21.118;2022-12-24T02:38:17;58.20;;;45.50;;
33794;SDS011;51430;52.242;21.118;2022-12-24T02:44:07;60.10;;;45.00;;
33794;SDS011;51430;52.242;21.118;2022-12-24T02:46:53;59.40;;;44.80;;
33794;SDS011;51430;52.242;21.118;2022-12-24T02:49:42;68.40;;;47.50;;
33794;SDS011;51430;52.242;21.118;2022-12-24T02:52:36;59.40;;;44.90;;
33794;SDS011;51430;52.242;21.118;2022-12-24T02:55:23;64.50;;;47.90;;
33794;SDS011;51430;52.242;21.118;2022-12-24T02:58:27;72.00;;;48.30;;
33794;SDS011;51430;52.242;21.118;2022-12-24T03:08:01;74.20;;;48.60;;
33794;SDS011;51430;52.242;21.118;2022-12-24T03:10:54;79.90;;;50.10;;
33794;SDS011;51430;52.242;21.118;2022-12-24T03:13:43;75.20;;;49.00;;
33794;SDS011;51430;52.242;21.118;2022-12-24T03:16:31;67.20;;;47.10;;
33794;SDS011;51430;52.242;21.118;2022-12-24T03:19:17;71.80;;;47.70;;
33794;SDS011;51430;52.242;21.118;2022-12-24T03:22:06;73.50;;;47.20;;
33794;SDS011;51430;52.242;21.118;2022-12-24T03:24:54;90.00;;;50.70;;
33794;SDS011;51430;52.242;21.118;2022-12-24T03:27:40;99.80;;;53.10;;
33794;SDS011;51430;52.242;21.118;2022-12-24T03:30:27;80.50;;;48.80;;
33794;SDS011;51430;52.242;21.118;2022-12-24T03:33:14;86.00;;;50.20;;
33794;SDS011;51430;52.242;21.118;2022-12-24T03:36:16;63.80;;;37.50;;
33794;SDS011;51430;52.242;21.118;2022-12-24T03:39:05;78.50;;;46.80;;
33794;SDS011;51430;52.242;21.118;2022-12-24T03:41:52;78.90;;;47.40;;
33794;SDS011;51430;52.242;21.118;2022-12-24T03:44:38;73.90;;;45.40;;
33794;SDS011;51430;52.242;21.118;2022-12-24T03:47:25;80.30;;;47.30;;
33794;SDS011;51430;52.242;21.118;2022-12-24T03:50:12;77.50;;;46.70;;
33794;SDS011;51430;52.242;21.118;2022-12-24T03:52:59;85.30;;;47.90;;
33794;SDS011;51430;52.242;21.118;2022-12-24T03:55:46;72.10;;;45.90;;
33794;SDS011;51430;52.242;21.118;2022-12-24T03:58:34;76.40;;;47.40;;
33794;SDS011;51430;52.242;21.118;2022-12-24T04:01:21;71.00;;;44.70;;
33794;SDS011;51430;52.242;21.118;2022-12-24T04:04:07;94.90;;;49.80;;
33794;SDS011;51430;52.242;21.118;2022-12-24T04:06:54;80.90;;;47.90;;
33794;SDS011;51430;52.242;21.118;2022-12-24T04:09:41;74.70;;;45.90;;
33794;SDS011;51430;52.242;21.118;2022-12-24T04:12:28;77.50;;;46.50;;
33794;SDS011;51430;52.242;21.118;2022-12-24T04:15:14;74.00;;;44.10;;
33794;SDS011;51430;52.242;21.118;2022-12-24T04:18:01;80.70;;;44.90;;
33794;SDS011;51430;52.242;21.118;2022-12-24T04:20:48;76.60;;;45.10;;
33794;SDS011;51430;52.242;21.118;2022-12-24T04:23:35;80.40;;;46.50;;
33794;SDS011;51430;52.242;21.118;2022-12-24T04:26:24;81.00;;;44.60;;
33794;SDS011;51430;52.242;21.118;2022-12-24T04:29:10;79.60;;;43.40;;
33794;SDS011;51430;52.242;21.118;2022-12-24T04:32:00;80.20;;;43.30;;
33794;SDS011;51430;52.242;21.118;2022-12-24T04:34:48;89.70;;;45.20;;
33794;SDS011;51430;52.242;21.118;2022-12-24T04:37:35;85.80;;;44.60;;
33794;SDS011;51430;52.242;21.118;2022-12-24T04:40:22;87.20;;;44.50;;
33794;SDS011;51430;52.242;21.118;2022-12-24T04:43:09;84.60;;;42.70;;
33794;SDS011;51430;52.242;21.118;2022-12-24T04:46:02;92.70;;;43.80;;
33794;SDS011;51430;52.242;21.118;2022-12-24T04:48:53;79.10;;;40.50;;
33794;SDS011;51430;52.242;21.118;2022-12-24T04:55:54;73.70;;;38.80;;
33794;SDS011;51430;52.242;21.118;2022-12-24T04:58:41;78.10;;;40.40;;
33794;SDS011;51430;52.242;21.118;2022-12-24T05:02:08;55.30;;;28.60;;
33794;SDS011;51430;52.242;21.118;2022-12-24T05:04:54;66.30;;;34.80;;
33794;SDS011;51430;52.242;21.118;2022-12-24T05:07:41;65.80;;;34.70;;
33794;SDS011;51430;52.242;21.118;2022-12-24T05:10:27;67.60;;;34.90;;
33794;SDS011;51430;52.242;21.118;2022-12-24T05:13:12;67.70;;;34.60;;
33794;SDS011;51430;52.242;21.118;2022-12-24T05:15:57;60.50;;;33.00;;
33794;SDS011;51430;52.242;21.118;2022-12-24T05:18:42;62.50;;;31.50;;
33794;SDS011;51430;52.242;21.118;2022-12-24T05:21:28;55.70;;;29.70;;
33794;SDS011;51430;52.242;21.118;2022-12-24T05:24:13;52.80;;;28.50;;
33794;SDS011;51430;52.242;21.118;2022-12-24T05:27:17;52.00;;;27.40;;
33794;SDS011;51430;52.242;21.118;2022-12-24T05:30:02;53.70;;;28.90;;
33794;SDS011;51430;52.242;21.118;2022-12-24T05:32:50;56.10;;;28.60;;
33794;SDS011;51430;52.242;21.118;2022-12-24T05:35:35;53.80;;;28.30;;
33794;SDS011;51430;52.242;21.118;2022-12-24T05:38:22;57.50;;;28.30;;
33794;SDS011;51430;52.242;21.118;2022-12-24T05:41:08;60.00;;;29.00;;
33794;SDS011;51430;52.242;21.118;2022-12-24T05:43:54;60.60;;;28.50;;
33794;SDS011;51430;52.242;21.118;2022-12-24T05:46:50;38.10;;;20.40;;
33794;SDS011;51430;52.242;21.118;2022-12-24T05:49:37;54.90;;;27.10;;
33794;SDS011;51430;52.242;21.118;2022-12-24T05:52:24;55.40;;;27.70;;
33794;SDS011;51430;52.242;21.118;2022-12-24T05:55:11;58.80;;;27.50;;
33794;SDS011;51430;52.242;21.118;2022-12-24T05:57:58;63.80;;;28.60;;
33794;SDS011;51430;52.242;21.118;2022-12-24T06:00:44;60.50;;;28.90;;
33794;SDS011;51430;52.242;21.118;2022-12-24T06:03:32;66.10;;;29.00;;
33794;SDS011;51430;52.242;21.118;2022-12-24T06:06:20;63.20;;;28.80;;
33794;SDS011;51430;52.242;21.118;2022-12-24T06:09:08;62.90;;;27.80;;
33794;SDS011;51430;52.242;21.118;2022-12-24T06:11:55;72.00;;;28.40;;
33794;SDS011;51430;52.242;21.118;2022-12-24T06:14:41;59.80;;;27.60;;
33794;SDS011;51430;52.242;21.118;2022-12-24T06:17:29;57.30;;;27.40;;
33794;SDS011;51430;52.242;21.118;2022-12-24T06:20:15;62.10;;;27.50;;
33794;SDS011;51430;52.242;21.118;2022-12-24T06:23:02;58.60;;;26.80;;
33794;SDS011;51430;52.242;21.118;2022-12-24T06:25:49;56.30;;;26.80;;
33794;SDS011;51430;52.242;21.118;2022-12-24T06:28:36;56.90;;;26.40;;
33794;SDS011;51430;52.242;21.118;2022-12-24T06:31:23;58.60;;;27.50;;
33794;SDS011;51430;52.242;21.118;2022-12-24T06:34:22;57.60;;;27.50;;
33794;SDS011;51430;52.242;21.118;2022-12-24T06:37:20;43.30;;;20.50;;
33794;SDS011;51430;52.242;21.118;2022-12-24T06:40:07;54.50;;;26.30;;
33794;SDS011;51430;52.242;21.118;2022-12-24T06:42:54;60.50;;;26.90;;
33794;SDS011;51430;52.242;21.118;2022-12-24T06:45:45;58.60;;;27.00;;
33794;SDS011;51430;52.242;21.118;2022-12-24T06:48:33;59.00;;;27.20;;
33794;SDS011;51430;52.242;21.118;2022-12-24T06:51:20;60.10;;;27.20;;
33794;SDS011;51430;52.242;21.118;2022-12-24T06:54:08;58.60;;;27.10;;
33794;SDS011;51430;52.242;21.118;2022-12-24T06:56:57;62.20;;;26.90;;
33794;SDS011;51430;52.242;21.118;2022-12-24T06:59:44;57.70;;;26.50;;
33794;SDS011;51430;52.242;21.118;2022-12-24T07:02:37;53.90;;;25.40;;
33794;SDS011;51430;52.242;21.118;2022-12-24T07:05:30;55.20;;;26.50;;
33794;SDS011;51430;52.242;21.118;2022-12-24T07:08:17;56.30;;;26.80;;
33794;SDS011;51430;52.242;21.118;2022-12-24T07:11:11;51.00;;;24.60;;
33794;SDS011;51430;52.242;21.118;2022-12-24T07:14:00;54.40;;;25.00;;
33794;SDS011;51430;52.242;21.118;2022-12-24T07:17:15;48.20;;;23.80;;
33794;SDS011;51430;52.242;21.118;2022-12-24T07:23:13;35.30;;;18.30;;
33794;SDS011;51430;52.242;21.118;2022-12-24T07:26:36;31.10;;;17.80;;
33794;SDS011;51430;52.242;21.118;2022-12-24T07:40:55;36.70;;;18.90;;
33794;SDS011;51430;52.242;21.118;2022-12-24T07:43:42;40.40;;;20.70;;
33794;SDS011;51430;52.242;21.118;2022-12-24T07:46:28;45.20;;;22.40;;
33794;SDS011;51430;52.242;21.118;2022-12-24T07:49:15;45.50;;;22.50;;
33794;SDS011;51430;52.242;21.118;2022-12-24T07:54:10;30.70;;;16.50;;
33794;SDS011;51430;52.242;21.118;2022-12-24T07:57:03;45.50;;;21.40;;
33794;SDS011;51430;52.242;21.118;2022-12-24T07:59:51;44.80;;;22.00;;
33794;SDS011;51430;52.242;21.118;2022-12-24T08:02:44;42.30;;;21.60;;
33794;SDS011;51430;52.242;21.118;2022-12-24T08:05:35;39.00;;;21.20;;
33794;SDS011;51430;52.242;21.118;2022-12-24T08:08:45;41.90;;;21.40;;
33794;SDS011;51430;52.242;21.118;2022-12-24T08:17:55;28.80;;;14.80;;
33794;SDS011;51430;52.242;21.118;2022-12-24T08:20:44;36.80;;;19.80;;
33794;SDS011;51430;52.242;21.118;2022-12-24T08:23:32;37.70;;;19.80;;
33794;SDS011;51430;52.242;21.118;2022-12-24T08:26:19;36.80;;;20.00;;
33794;SDS011;51430;52.242;21.118;2022-12-24T08:29:07;35.30;;;19.50;;
33794;SDS011;51430;52.242;21.118;2022-12-24T08:31:58;36.50;;;19.90;;
33794;SDS011;51430;52.242;21.118;2022-12-24T08:34:45;32.10;;;18.50;;
33794;SDS011;51430;52.242;21.118;2022-12-24T08:37:32;28.00;;;17.60;;
33794;SDS011;51430;52.242;21.118;2022-12-24T08:40:19;26.20;;;17.50;;
33794;SDS011;51430;52.242;21.118;2022-12-24T08:43:06;28.10;;;17.70;;
33794;SDS011;51430;52.242;21.118;2022-12-24T08:45:53;28.00;;;18.00;;
33794;SDS011;51430;52.242;21.118;2022-12-24T08:48:40;27.90;;;18.40;;
33794;SDS011;51430;52.242;21.118;2022-12-24T08:51:28;29.00;;;19.80;;
33794;SDS011;51430;52.242;21.118;2022-12-24T08:54:14;25.60;;;18.60;;
33794;SDS011;51430;52.242;21.118;2022-12-24T08:57:02;24.70;;;17.50;;
33794;SDS011;51430;52.242;21.118;2022-12-24T08:59:49;26.20;;;17.30;;
33794;SDS011;51430;52.242;21.118;2022-12-24T09:02:36;24.40;;;16.60;;
33794;SDS011;51430;52.242;21.118;2022-12-24T09:05:23;23.90;;;17.10;;
33794;SDS011;51430;52.242;21.118;2022-12-24T09:08:11;22.80;;;15.60;;
33794;SDS011;51430;52.242;21.118;2022-12-24T09:11:08;32.90;;;18.40;;
33794;SDS011;51430;52.242;21.118;2022-12-24T09:13:58;25.40;;;17.00;;
33794;SDS011;51430;52.242;21.118;2022-12-24T09:16:45;22.00;;;15.70;;
33794;SDS011;51430;52.242;21.118;2022-12-24T09:19:32;22.20;;;16.10;;
33794;SDS011;51430;52.242;21.118;2022-12-24T09:22:19;23.30;;;16.40;;
33794;SDS011;51430;52.242;21.118;2022-12-24T09:25:07;24.10;;;16.90;;
33794;SDS011;51430;52.242;21.118;2022-12-24T09:27:55;26.20;;;16.90;;
33794;SDS011;51430;52.242;21.118;2022-12-24T09:30:42;23.00;;;16.00;;
33794;SDS011;51430;52.242;21.118;2022-12-24T09:33:31;23.20;;;15.60;;
33794;SDS011;51430;52.242;21.118;2022-12-24T09:36:21;21.40;;;15.20;;
33794;SDS011;51430;52.242;21.118;2022-12-24T09:39:08;20.70;;;15.40;;
33794;SDS011;51430;52.242;21.118;2022-12-24T09:44:53;20.90;;;15.40;;
33794;SDS011;51430;52.242;21.118;2022-12-24T09:47:54;19.40;;;14.30;;
33794;SDS011;51430;52.242;21.118;2022-12-24T09:50:50;21.20;;;14.80;;
33794;SDS011;51430;52.242;21.118;2022-12-24T09:53:42;20.00;;;15.00;;
33794;SDS011;51430;52.242;21.118;2022-12-24T09:56:38;22.40;;;15.50;;
33794;SDS011;51430;52.242;21.118;2022-12-24T09:59:38;19.50;;;14.10;;
33794;SDS011;51430;52.242;21.118;2022-12-24T10:02:27;18.50;;;14.00;;
33794;SDS011;51430;52.242;21.118;2022-12-24T10:05:14;19.60;;;13.90;;
33794;SDS011;51430;52.242;21.118;2022-12-24T10:11:06;17.00;;;13.70;;
33794;SDS011;51430;52.242;21.118;2022-12-24T10:17:40;18.00;;;15.00;;
33794;SDS011;51430;52.242;21.118;2022-12-24T10:23:45;16.40;;;13.30;;
33794;SDS011;51430;52.242;21.118;2022-12-24T10:26:46;15.30;;;12.10;;
33794;SDS011;51430;52.242;21.118;2022-12-24T10:29:39;24.80;;;14.40;;
33794;SDS011;51430;52.242;21.118;2022-12-24T10:32:34;17.20;;;12.70;;
33794;SDS011;51430;52.242;21.118;2022-12-24T10:35:22;17.50;;;13.00;;
33794;SDS011;51430;52.242;21.118;2022-12-24T10:38:15;17.30;;;13.60;;
33794;SDS011;51430;52.242;21.118;2022-12-24T10:41:02;19.40;;;13.70;;
33794;SDS011;51430;52.242;21.118;2022-12-24T10:43:49;23.60;;;18.20;;
33794;SDS011;51430;52.242;21.118;2022-12-24T10:46:37;20.20;;;14.90;;
33794;SDS011;51430;52.242;21.118;2022-12-24T10:49:30;20.10;;;14.90;;
33794;SDS011;51430;52.242;21.118;2022-12-24T10:52:23;21.50;;;15.30;;
33794;SDS011;51430;52.242;21.118;2022-12-24T10:58:06;26.00;;;17.20;;
33794;SDS011;51430;52.242;21.118;2022-12-24T11:01:02;36.50;;;23.40;;
33794;SDS011;51430;52.242;21.118;2022-12-24T11:04:12;29.90;;;19.80;;
33794;SDS011;51430;52.242;21.118;2022-12-24T11:07:04;24.70;;;17.50;;
33794;SDS011;51430;52.242;21.118;2022-12-24T11:09:59;27.20;;;17.70;;
33794;SDS011;51430;52.242;21.118;2022-12-24T11:12:49;25.60;;;17.30;;
33794;SDS011;51430;52.242;21.118;2022-12-24T11:16:06;27.30;;;17.60;;
33794;SDS011;51430;52.242;21.118;2022-12-24T11:19:14;25.30;;;17.20;;
33794;SDS011;51430;52.242;21.118;2022-12-24T11:22:05;25.30;;;18.40;;
33794;SDS011;51430;52.242;21.118;2022-12-24T11:27:54;26.50;;;17.70;;
33794;SDS011;51430;52.242;21.118;2022-12-24T11:30:42;27.00;;;16.90;;
33794;SDS011;51430;52.242;21.118;2022-12-24T11:33:49;26.90;;;17.50;;
33794;SDS011;51430;52.242;21.118;2022-12-24T11:36:38;27.90;;;17.80;;
33794;SDS011;51430;52.242;21.118;2022-12-24T11:43:47;25.60;;;17.50;;
33794;SDS011;51430;52.242;21.118;2022-12-24T11:46:37;29.80;;;19.00;;
33794;SDS011;51430;52.242;21.118;2022-12-24T11:56:54;29.70;;;19.40;;
33794;SDS011;51430;52.242;21.118;2022-12-24T11:59:45;30.00;;;18.80;;
33794;SDS011;51430;52.242;21.118;2022-12-24T12:02:42;29.80;;;19.90;;
33794;SDS011;51430;52.242;21.118;2022-12-24T12:05:33;31.00;;;19.80;;
33794;SDS011;51430;52.242;21.118;2022-12-24T12:08:20;31.50;;;21.00;;
33794;SDS011;51430;52.242;21.118;2022-12-24T12:11:10;29.70;;;19.80;;
33794;SDS011;51430;52.242;21.118;2022-12-24T12:13:59;28.10;;;18.40;;
33794;SDS011;51430;52.242;21.118;2022-12-24T12:17:00;32.10;;;19.00;;
33794;SDS011;51430;52.242;21.118;2022-12-24T12:22:55;28.00;;;17.80;;
33794;SDS011;51430;52.242;21.118;2022-12-24T12:31:47;26.30;;;17.80;;
33794;SDS011;51430;52.242;21.118;2022-12-24T12:35:04;26.60;;;18.90;;
33794;SDS011;51430;52.242;21.118;2022-12-24T12:38:03;34.30;;;24.40;;
33794;SDS011;51430;52.242;21.118;2022-12-24T12:50:45;26.20;;;18.40;;
33794;SDS011;51430;52.242;21.118;2022-12-24T13:15:01;26.40;;;19.20;;
33794;SDS011;51430;52.242;21.118;2022-12-24T13:20:55;27.80;;;19.70;;
33794;SDS011;51430;52.242;21.118;2022-12-24T13:23:42;27.50;;;20.20;;
33794;SDS011;51430;52.242;21.118;2022-12-24T13:26:29;26.80;;;20.90;;
33794;SDS011;51430;52.242;21.118;2022-12-24T13:29:28;28.00;;;20.60;;
33794;SDS011;51430;52.242;21.118;2022-12-24T13:44:27;31.10;;;22.70;;
33794;SDS011;51430;52.242;21.118;2022-12-24T13:47:18;32.90;;;23.20;;
33794;SDS011;51430;52.242;21.118;2022-12-24T13:50:34;31.80;;;23.30;;
33794;SDS011;51430;52.242;21.118;2022-12-24T13:53:32;31.80;;;23.70;;
33794;SDS011;51430;52.242;21.118;2022-12-24T13:56:26;33.90;;;23.80;;
33794;SDS011;51430;52.242;21.118;2022-12-24T14:02:33;33.30;;;23.60;;
33794;SDS011;51430;52.242;21.118;2022-12-24T14:05:30;31.90;;;23.50;;
33794;SDS011;51430;52.242;21.118;2022-12-24T14:11:18;33.00;;;24.00;;
33794;SDS011;51430;52.242;21.118;2022-12-24T14:14:19;31.70;;;23.90;;
33794;SDS011;51430;52.242;21.118;2022-12-24T14:17:24;33.70;;;25.20;;
33794;SDS011;51430;52.242;21.118;2022-12-24T14:20:12;34.50;;;25.70;;
33794;SDS011;51430;52.242;21.118;2022-12-24T14:23:05;34.40;;;25.10;;
33794;SDS011;51430;52.242;21.118;2022-12-24T14:26:14;37.80;;;28.20;;
33794;SDS011;51430;52.242;21.118;2022-12-24T14:32:17;41.20;;;28.80;;
33794;SDS011;51430;52.242;21.118;2022-12-24T14:35:19;54.20;;;33.60;;
33794;SDS011;51430;52.242;21.118;2022-12-24T14:38:13;71.20;;;40.00;;
33794;SDS011;51430;52.242;21.118;2022-12-24T14:47:42;75.40;;;40.20;;
33794;SDS011;51430;52.242;21.118;2022-12-24T14:59:58;68.00;;;36.90;;
33794;SDS011;51430;52.242;21.118;2022-12-24T15:02:49;68.60;;;36.80;;
33794;SDS011;51430;52.242;21.118;2022-12-24T15:05:40;70.20;;;36.80;;
33794;SDS011;51430;52.242;21.118;2022-12-24T15:08:35;73.50;;;38.20;;
33794;SDS011;51430;52.242;21.118;2022-12-24T15:11:28;73.60;;;37.70;;
33794;SDS011;51430;52.242;21.118;2022-12-24T15:14:17;70.40;;;37.90;;
33794;SDS011;51430;52.242;21.118;2022-12-24T15:17:06;73.20;;;38.00;;
33794;SDS011;51430;52.242;21.118;2022-12-24T15:19:56;68.90;;;37.30;;
33794;SDS011;51430;52.242;21.118;2022-12-24T15:22:51;71.90;;;40.10;;
33794;SDS011;51430;52.242;21.118;2022-12-24T15:25:44;72.10;;;39.30;;
33794;SDS011;51430;52.242;21.118;2022-12-24T15:28:36;73.10;;;41.60;;
33794;SDS011;51430;52.242;21.118;2022-12-24T15:31:33;67.40;;;37.50;;
33794;SDS011;51430;52.242;21.118;2022-12-24T15:37:40;64.20;;;37.60;;
33794;SDS011;51430;52.242;21.118;2022-12-24T15:40:28;58.30;;;35.10;;
33794;SDS011;51430;52.242;21.118;2022-12-24T15:43:19;66.30;;;36.50;;
33794;SDS011;51430;52.242;21.118;2022-12-24T15:46:07;64.90;;;37.40;;
33794;SDS011;51430;52.242;21.118;2022-12-24T15:48:56;70.70;;;41.90;;
33794;SDS011;51430;52.242;21.118;2022-12-24T15:51:47;76.50;;;43.50;;
33794;SDS011;51430;52.242;21.118;2022-12-24T15:54:34;75.30;;;40.30;;
33794;SDS011;51430;52.242;21.118;2022-12-24T15:57:32;73.30;;;40.50;;
33794;SDS011;51430;52.242;21.118;2022-12-24T16:00:22;78.80;;;41.90;;
33794;SDS011;51430;52.242;21.118;2022-12-24T16:03:17;77.00;;;42.30;;
33794;SDS011;51430;52.242;21.118;2022-12-24T16:06:09;77.90;;;42.00;;
33794;SDS011;51430;52.242;21.118;2022-12-24T16:12:32;79.20;;;42.40;;
33794;SDS011;51430;52.242;21.118;2022-12-24T16:15:22;70.80;;;41.30;;
33794;SDS011;51430;52.242;21.118;2022-12-24T16:18:17;72.50;;;40.30;;
33794;SDS011;51430;52.242;21.118;2022-12-24T16:21:17;71.70;;;40.50;;
33794;SDS011;51430;52.242;21.118;2022-12-24T16:24:14;67.10;;;39.60;;
33794;SDS011;51430;52.242;21.118;2022-12-24T16:27:04;67.80;;;38.70;;
33794;SDS011;51430;52.242;21.118;2022-12-24T16:30:31;68.90;;;38.80;;
33794;SDS011;51430;52.242;21.118;2022-12-24T16:44:06;49.10;;;29.60;;
33794;SDS011;51430;52.242;21.118;2022-12-24T16:47:08;47.60;;;27.70;;
33794;SDS011;51430;52.242;21.118;2022-12-24T17:01:36;42.30;;;26.90;;
33794;SDS011;51430;52.242;21.118;2022-12-24T17:04:24;50.50;;;32.50;;
33794;SDS011;51430;52.242;21.118;2022-12-24T17:07:12;54.10;;;34.00;;
33794;SDS011;51430;52.242;21.118;2022-12-24T17:10:00;55.30;;;33.20;;
33794;SDS011;51430;52.242;21.118;2022-12-24T17:14:33;47.80;;;28.40;;
33794;SDS011;51430;52.242;21.118;2022-12-24T17:17:25;54.30;;;34.20;;
33794;SDS011;51430;52.242;21.118;2022-12-24T17:20:14;61.40;;;35.50;;
33794;SDS011;51430;52.242;21.118;2022-12-24T17:23:22;55.50;;;33.90;;
33794;SDS011;51430;52.242;21.118;2022-12-24T17:26:12;53.60;;;34.00;;
33794;SDS011;51430;52.242;21.118;2022-12-24T17:29:05;54.30;;;32.80;;
33794;SDS011;51430;52.242;21.118;2022-12-24T17:31:53;53.20;;;34.00;;
33794;SDS011;51430;52.242;21.118;2022-12-24T17:34:40;55.80;;;34.00;;
33794;SDS011;51430;52.242;21.118;2022-12-24T17:37:27;62.10;;;36.90;;
33794;SDS011;51430;52.242;21.118;2022-12-24T17:40:15;61.80;;;38.40;;
33794;SDS011;51430;52.242;21.118;2022-12-24T17:43:03;70.50;;;41.60;;
33794;SDS011;51430;52.242;21.118;2022-12-24T17:45:51;74.60;;;42.30;;
33794;SDS011;51430;52.242;21.118;2022-12-24T17:48:38;77.20;;;42.80;;
33794;SDS011;51430;52.242;21.118;2022-12-24T17:51:25;82.30;;;45.30;;
33794;SDS011;51430;52.242;21.118;2022-12-24T17:54:14;71.00;;;42.40;;
33794;SDS011;51430;52.242;21.118;2022-12-24T17:57:00;72.50;;;42.20;;
33794;SDS011;51430;52.242;21.118;2022-12-24T17:59:48;71.80;;;41.70;;
33794;SDS011;51430;52.242;21.118;2022-12-24T18:02:35;65.40;;;40.50;;
33794;SDS011;51430;52.242;21.118;2022-12-24T18:05:22;70.30;;;40.60;;
33794;SDS011;51430;52.242;21.118;2022-12-24T18:08:10;64.10;;;38.70;;
33794;SDS011;51430;52.242;21.118;2022-12-24T18:14:18;63.10;;;41.30;;
33794;SDS011;51430;52.242;21.118;2022-12-24T18:17:12;68.10;;;41.10;;
33794;SDS011;51430;52.242;21.118;2022-12-24T18:20:03;74.50;;;44.40;;
33794;SDS011;51430;52.242;21.118;2022-12-24T18:22:58;66.90;;;42.10;;
33794;SDS011;51430;52.242;21.118;2022-12-24T18:25:51;69.00;;;41.70;;
33794;SDS011;51430;52.242;21.118;2022-12-24T18:31:48;53.20;;;32.60;;
33794;SDS011;51430;52.242;21.118;2022-12-24T18:34:36;59.30;;;37.30;;
33794;SDS011;51430;52.242;21.118;2022-12-24T18:37:25;62.20;;;36.50;;
33794;SDS011;51430;52.242;21.118;2022-12-24T18:40:14;60.20;;;36.80;;
33794;SDS011;51430;52.242;21.118;2022-12-24T18:43:03;55.60;;;35.30;;
33794;SDS011;51430;52.242;21.118;2022-12-24T18:45:50;57.90;;;36.00;;
33794;SDS011;51430;52.242;21.118;2022-12-24T18:48:37;56.90;;;34.10;;
33794;SDS011;51430;52.242;21.118;2022-12-24T18:51:25;50.80;;;33.00;;
33794;SDS011;51430;52.242;21.118;2022-12-24T18:54:14;54.20;;;34.00;;
33794;SDS011;51430;52.242;21.118;2022-12-24T18:57:01;55.20;;;36.30;;
33794;SDS011;51430;52.242;21.118;2022-12-24T18:59:48;54.40;;;33.80;;
33794;SDS011;51430;52.242;21.118;2022-12-24T19:02:34;56.10;;;34.30;;
33794;SDS011;51430;52.242;21.118;2022-12-24T19:05:21;49.70;;;32.80;;
33794;SDS011;51430;52.242;21.118;2022-12-24T19:08:08;48.90;;;32.50;;
33794;SDS011;51430;52.242;21.118;2022-12-24T19:11:15;48.80;;;31.10;;
33794;SDS011;51430;52.242;21.118;2022-12-24T19:14:02;47.10;;;31.80;;
33794;SDS011;51430;52.242;21.118;2022-12-24T19:16:50;49.20;;;31.70;;
33794;SDS011;51430;52.242;21.118;2022-12-24T19:19:37;48.10;;;31.30;;
33794;SDS011;51430;52.242;21.118;2022-12-24T19:22:26;47.90;;;31.60;;
33794;SDS011;51430;52.242;21.118;2022-12-24T19:25:13;47.00;;;32.40;;
33794;SDS011;51430;52.242;21.118;2022-12-24T19:28:00;45.10;;;32.20;;
33794;SDS011;51430;52.242;21.118;2022-12-24T19:30:48;47.90;;;32.30;;
33794;SDS011;51430;52.242;21.118;2022-12-24T19:33:37;49.20;;;32.80;;
33794;SDS011;51430;52.242;21.118;2022-12-24T19:36:29;47.10;;;33.00;;
33794;SDS011;51430;52.242;21.118;2022-12-24T19:39:16;46.70;;;33.70;;
33794;SDS011;51430;52.242;21.118;2022-12-24T19:42:03;48.30;;;34.10;;
33794;SDS011;51430;52.242;21.118;2022-12-24T19:44:49;50.60;;;34.20;;
33794;SDS011;51430;52.242;21.118;2022-12-24T19:47:35;47.50;;;32.20;;